Time;durP1;ratioP1;P1;durP2;ratioP2;P2;SDS_P1;SDS_P2;PMS_P1;PMS_P2;Temp;Humidity;BMP_temperature;BMP_pressure;BME280_temperature;BME280_humidity;BME280_pressure;Samples;Min_cycle;Max_cycle;Signal;HPM_P1;HPM_P2
2021/08/15 00:00:12;;;;;;;19.00;16.07;;;;;;;18.21;73.02;100663.77;1676044;83;25831;-80
2021/08/15 00:02:42;;;;;;;25.88;16.10;;;;;;;18.16;73.10;100655.50;1631508;85;26589;-77
2021/08/15 00:05:10;;;;;;;22.05;15.68;;;;;;;18.15;73.14;100655.74;1630420;85;26132;-78
2021/08/15 00:07:38;;;;;;;24.18;16.20;;;;;;;18.12;73.24;100660.27;1652771;85;25778;-79
2021/08/15 00:10:07;;;;;;;23.20;16.27;;;;;;;18.08;73.15;100661.80;1677953;85;27626;-78
2021/08/15 00:12:35;;;;;;;21.87;15.45;;;;;;;18.04;73.64;100660.62;1647747;85;26620;-77
2021/08/15 00:15:03;;;;;;;20.25;15.05;;;;;;;17.99;73.40;100653.70;1640563;85;25878;-78
2021/08/15 00:17:30;;;;;;;20.92;14.85;;;;;;;17.93;73.56;100651.94;1631751;85;26663;-78
2021/08/15 00:19:57;;;;;;;19.80;15.50;;;;;;;17.88;73.58;100659.95;1680045;84;25853;-79
2021/08/15 00:22:24;;;;;;;18.57;14.07;;;;;;;17.88;73.98;100654.53;1614499;85;27483;-78
2021/08/15 00:24:52;;;;;;;20.40;14.98;;;;;;;17.91;74.03;100651.34;1681235;84;26547;-78
2021/08/15 00:27:19;;;;;;;20.65;14.50;;;;;;;17.91;74.02;100648.11;1646692;85;25878;-77
2021/08/15 00:29:47;;;;;;;20.12;14.43;;;;;;;17.87;73.83;100656.41;1657853;85;25819;-78
2021/08/15 00:32:14;;;;;;;17.98;14.18;;;;;;;17.82;73.68;100652.73;1630925;85;26655;-79
2021/08/15 00:34:41;;;;;;;18.60;14.68;;;;;;;17.76;73.80;100653.14;1680667;85;28312;-78
2021/08/15 00:37:08;;;;;;;22.02;16.32;;;;;;;17.78;74.14;100651.55;1647400;85;25822;-80
2021/08/15 00:39:35;;;;;;;21.95;15.88;;;;;;;17.81;74.55;100650.58;1636416;85;25579;-78
2021/08/15 00:42:02;;;;;;;25.37;16.87;;;;;;;17.83;74.69;100648.45;1624082;85;25811;-78
2021/08/15 00:44:29;;;;;;;18.60;15.78;;;;;;;17.85;74.56;100646.34;1680274;85;25321;-78
2021/08/15 00:46:58;;;;;;;18.80;14.65;;;;;;;17.85;74.67;100643.63;1641519;85;28344;-78
2021/08/15 00:49:25;;;;;;;20.27;15.43;;;;;;;17.84;74.34;100640.61;1656341;85;25942;-78
2021/08/15 00:51:52;;;;;;;20.75;14.98;;;;;;;17.79;74.50;100641.02;1631777;85;26539;-78
2021/08/15 00:54:20;;;;;;;18.57;14.80;;;;;;;17.76;74.81;100645.02;1679312;85;25975;-78
2021/08/15 00:56:54;;;;;;;18.82;14.87;;;;;;;17.71;74.57;100638.94;1655406;85;25986;-78
2021/08/15 00:59:21;;;;;;;20.37;15.03;;;;;;;17.67;74.46;100641.81;1648714;85;28281;-78
2021/08/15 01:01:52;;;;;;;21.00;14.50;;;;;;;17.62;74.44;100646.29;1628349;85;25751;-77
2021/08/15 01:04:21;;;;;;;18.85;14.80;;;;;;;17.57;74.35;100641.56;1679964;85;25789;-78
2021/08/15 01:06:49;;;;;;;22.65;14.65;;;;;;;17.54;74.47;100634.41;1651088;85;26293;-78
2021/08/15 01:09:16;;;;;;;18.45;14.98;;;;;;;17.52;74.37;100636.52;1678444;85;25998;-78
2021/08/15 01:11:43;;;;;;;19.55;14.45;;;;;;;17.49;74.65;100632.36;1647316;85;27361;-78
2021/08/15 01:14:10;;;;;;;17.27;14.03;;;;;;;17.47;74.87;100628.25;1645781;85;26520;-79
2021/08/15 01:16:42;;;;;;;20.20;14.78;;;;;;;17.44;74.81;100630.05;1641501;84;25818;-77
2021/08/15 01:19:10;;;;;;;19.17;14.50;;;;;;;17.43;74.87;100629.22;1667412;84;26081;-78
2021/08/15 01:21:48;;;;;;;23.05;15.72;;;;;;;17.41;74.82;100627.80;1667059;84;25827;-79
2021/08/15 01:24:15;;;;;;;24.25;14.83;;;;;;;17.40;75.10;100629.70;1641081;84;28180;-77
2021/08/15 01:26:44;;;;;;;21.82;16.70;;;;;;;17.40;75.13;100631.05;1622660;86;25781;-77
2021/08/15 01:29:12;;;;;;;22.22;16.25;;;;;;;17.43;75.46;100631.09;1687564;83;25750;-79
2021/08/15 01:31:39;;;;;;;21.70;16.48;;;;;;;17.47;75.74;100628.25;1644810;84;26060;-78
2021/08/15 01:34:06;;;;;;;23.22;16.75;;;;;;;17.48;75.89;100617.70;1667606;84;26593;-78
2021/08/15 01:36:33;;;;;;;23.22;17.48;;;;;;;17.50;75.94;100618.33;1618144;86;28353;-78
2021/08/15 01:39:00;;;;;;;21.65;16.25;;;;;;;17.51;76.07;100617.28;1689039;84;25815;-79
2021/08/15 01:41:27;;;;;;;20.17;15.38;;;;;;;17.50;75.99;100614.27;1643980;84;26419;-78
2021/08/15 01:43:58;;;;;;;21.15;15.15;;;;;;;17.47;75.92;100618.77;1654999;84;25853;-78
2021/08/15 01:46:30;;;;;;;;;;;;;;;17.44;76.12;100619.22;1643760;84;26016;-79
2021/08/15 01:48:59;;;;;;;24.82;14.68;;;;;;;17.41;76.38;100614.25;1690041;83;27533;-78
2021/08/15 01:51:26;;;;;;;22.15;14.70;;;;;;;17.37;76.13;100617.13;1643629;84;26367;-78
2021/08/15 01:53:56;;;;;;;19.05;15.28;;;;;;;17.36;76.23;100615.49;1646345;86;26068;-79
2021/08/15 01:56:24;;;;;;;21.10;16.40;;;;;;;17.31;76.18;100607.22;1660170;84;25851;-78
2021/08/15 01:58:51;;;;;;;20.70;16.40;;;;;;;17.25;76.35;100604.92;1690824;84;26530;-78
2021/08/15 02:01:20;;;;;;;24.52;17.55;;;;;;;17.29;76.75;100598.51;1643512;84;26657;-78
2021/08/15 02:03:49;;;;;;;26.23;17.10;;;;;;;17.30;77.13;100602.33;1660034;84;26104;-79
2021/08/15 02:06:17;;;;;;;23.52;18.60;;;;;;;17.29;77.19;100599.34;1667378;84;25985;-79
2021/08/15 02:08:48;;;;;;;23.27;17.23;;;;;;;17.28;77.44;100600.94;1690893;84;26170;-77
2021/08/15 02:11:16;;;;;;;20.48;16.20;;;;;;;17.26;77.17;100598.44;1644232;84;26082;-77
2021/08/15 02:13:44;;;;;;;25.95;16.80;;;;;;;17.24;77.20;100599.20;1667216;84;28180;-77
2021/08/15 02:16:12;;;;;;;22.58;15.72;;;;;;;17.24;77.13;100599.72;1635898;86;26673;-79
2021/08/15 02:18:39;;;;;;;19.95;15.98;;;;;;;17.23;77.20;100594.85;1691147;84;26381;-77
2021/08/15 02:21:07;;;;;;;22.40;17.05;;;;;;;17.23;77.11;100595.38;1643157;84;25843;-78
2021/08/15 02:23:34;;;;;;;20.55;17.10;;;;;;;17.18;77.10;100587.11;1648403;86;25818;-76
2021/08/15 02:26:01;;;;;;;21.95;17.15;;;;;;;17.15;77.24;100594.34;1669398;84;28285;-78
2021/08/15 02:28:28;;;;;;;23.15;16.10;;;;;;;17.13;77.17;100593.20;1666412;84;25840;-80
2021/08/15 02:30:55;;;;;;;21.17;17.25;;;;;;;17.10;77.08;100588.27;1638316;86;25857;-78
2021/08/15 02:33:22;;;;;;;26.02;18.73;;;;;;;17.08;77.14;100593.08;1651885;85;25933;-79
2021/08/15 02:35:48;;;;;;;22.75;17.00;;;;;;;17.06;77.23;100590.30;1643721;85;25818;-79
2021/08/15 02:38:16;;;;;;;21.97;17.73;;;;;;;17.02;77.40;100591.30;1651971;84;27176;-78
2021/08/15 02:40:43;;;;;;;23.22;17.95;;;;;;;17.00;77.49;100596.64;1628675;85;26697;-77
2021/08/15 02:43:10;;;;;;;20.05;16.50;;;;;;;16.94;77.37;100592.42;1616771;86;25932;-78
2021/08/15 02:45:37;;;;;;;20.32;16.12;;;;;;;16.93;77.38;100595.38;1628929;86;25815;-79
2021/08/15 02:48:04;;;;;;;22.35;17.12;;;;;;;16.90;77.37;100590.40;1690268;83;25943;-78
2021/08/15 02:50:31;;;;;;;19.90;16.50;;;;;;;16.90;77.38;100594.45;1638881;86;27331;-78
2021/08/15 02:52:58;;;;;;;22.15;15.93;;;;;;;16.87;77.45;100590.88;1632852;85;25933;-78
2021/08/15 02:55:25;;;;;;;20.65;16.12;;;;;;;16.84;77.59;100589.44;1671795;85;25818;-78
2021/08/15 02:57:52;;;;;;;21.45;16.95;;;;;;;16.84;77.52;100592.15;1680619;85;26222;-78
2021/08/15 03:00:19;;;;;;;21.65;18.55;;;;;;;16.82;77.76;100590.72;1638672;84;25895;-78
2021/08/15 03:02:46;;;;;;;22.55;17.05;;;;;;;16.80;77.78;100587.41;1645222;85;27550;-77
2021/08/15 03:05:13;;;;;;;22.65;17.95;;;;;;;16.77;77.65;100584.63;1666019;84;26555;-78
2021/08/15 03:07:40;;;;;;;22.13;17.95;;;;;;;16.74;77.76;100581.57;1667786;84;25874;-77
2021/08/15 03:10:09;;;;;;;22.20;17.17;;;;;;;16.71;77.95;100581.48;1643645;84;25911;-78
2021/08/15 03:12:37;;;;;;;20.12;16.05;;;;;;;16.69;78.03;100574.13;1667433;84;26597;-79
2021/08/15 03:15:05;;;;;;;21.73;16.65;;;;;;;16.67;77.99;100572.70;1656240;84;27613;-79
2021/08/15 03:17:32;;;;;;;21.70;16.60;;;;;;;16.63;77.95;100564.74;1681756;84;25809;-78
2021/08/15 03:19:59;;;;;;;22.70;18.30;;;;;;;16.61;78.04;100573.61;1634188;84;25890;-79
2021/08/15 03:22:27;;;;;;;25.20;19.23;;;;;;;16.62;78.64;100572.55;1660923;85;25891;-77
2021/08/15 03:24:53;;;;;;;26.27;19.65;;;;;;;16.62;79.02;100568.48;1656789;84;26122;-78
2021/08/15 03:27:20;;;;;;;25.40;18.52;;;;;;;16.64;79.42;100566.37;1656836;84;27571;-76
2021/08/15 03:29:47;;;;;;;25.08;19.98;;;;;;;16.64;79.66;100570.44;1634545;84;26054;-78
2021/08/15 03:32:14;;;;;;;26.97;21.02;;;;;;;16.67;79.91;100570.83;1638666;84;25870;-78
2021/08/15 03:34:41;;;;;;;26.45;20.62;;;;;;;16.71;80.23;100569.84;1636081;84;26320;-78
2021/08/15 03:37:08;;;;;;;25.75;19.52;;;;;;;16.74;80.25;100569.39;1684745;84;26427;-80
2021/08/15 03:39:36;;;;;;;23.42;18.98;;;;;;;16.77;80.39;100567.05;1632391;84;27493;-77
2021/08/15 03:42:03;;;;;;;26.48;19.60;;;;;;;16.79;80.40;100570.35;1650275;84;26519;-78
2021/08/15 03:44:32;;;;;;;24.60;18.77;;;;;;;16.84;80.41;100570.51;1684574;84;26066;-78
2021/08/15 03:47:00;;;;;;;22.93;18.77;;;;;;;16.87;80.38;100570.03;1678061;84;25821;-78
2021/08/15 03:49:28;;;;;;;23.05;17.98;;;;;;;16.91;80.43;100567.72;1634138;84;25859;-79
2021/08/15 03:51:57;;;;;;;21.97;18.00;;;;;;;16.96;80.49;100558.36;1629898;84;27325;-77
2021/08/15 03:54:24;;;;;;;21.52;16.95;;;;;;;17.02;80.55;100562.88;1684195;84;26555;-78
2021/08/15 03:56:52;;;;;;;23.15;16.07;;;;;;;17.05;80.67;100563.76;1630104;86;25872;-77
2021/08/15 03:59:20;;;;;;;23.12;17.50;;;;;;;17.07;80.67;100558.94;1654840;85;26104;-77
2021/08/15 04:01:48;;;;;;;24.18;17.07;;;;;;;17.12;80.66;100555.55;1631504;84;25891;-78
2021/08/15 04:04:16;;;;;;;19.17;15.90;;;;;;;17.18;80.82;100556.81;1655011;85;28163;-78
2021/08/15 04:06:43;;;;;;;22.15;16.93;;;;;;;17.22;80.85;100558.52;1642159;85;25761;-77
2021/08/15 04:09:11;;;;;;;23.50;18.65;;;;;;;17.26;81.08;100556.47;1669637;84;26269;-77
2021/08/15 04:11:39;;;;;;;24.00;16.90;;;;;;;17.31;81.08;100555.26;1658520;84;25511;-77
2021/08/15 04:14:06;;;;;;;19.85;17.45;;;;;;;17.36;81.20;100547.80;1689964;84;25852;-79
2021/08/15 04:16:33;;;;;;;20.97;17.30;;;;;;;17.42;81.28;100544.99;1639529;86;27585;-79
2021/08/15 04:19:00;;;;;;;21.80;18.05;;;;;;;17.47;81.24;100543.75;1640590;85;26540;-78
2021/08/15 04:21:27;;;;;;;24.67;17.00;;;;;;;17.52;81.34;100539.85;1602065;85;26039;-79
2021/08/15 04:23:54;;;;;;;21.30;17.25;;;;;;;17.57;81.37;100541.86;1676016;85;26343;-79
2021/08/15 04:26:21;;;;;;;23.10;17.87;;;;;;;17.63;81.54;100539.57;1624681;85;25940;-79
2021/08/15 04:28:49;;;;;;;21.10;17.02;;;;;;;17.67;81.71;100543.45;1648539;86;27459;-78
2021/08/15 04:31:16;;;;;;;19.92;15.98;;;;;;;17.71;81.92;100532.44;1624820;85;26610;-79
2021/08/15 04:33:43;;;;;;;20.45;16.90;;;;;;;17.77;81.89;100538.83;1645501;85;25633;-78
2021/08/15 04:36:10;;;;;;;17.92;16.02;;;;;;;17.82;81.98;100532.16;1663288;83;26636;-79
2021/08/15 04:38:37;;;;;;;21.20;16.17;;;;;;;17.85;82.08;100532.53;1632175;85;26229;-77
2021/08/15 04:41:04;;;;;;;23.75;16.10;;;;;;;17.90;82.24;100533.98;1622633;86;27474;-78
2021/08/15 04:43:32;;;;;;;17.87;15.93;;;;;;;17.95;82.08;100534.11;1671021;84;26557;-78
2021/08/15 04:46:00;;;;;;;28.50;16.93;;;;;;;18.01;82.10;100535.03;1644286;85;25839;-78
2021/08/15 04:48:28;;;;;;;21.07;16.15;;;;;;;18.08;82.07;100535.22;1613296;86;26471;-77
2021/08/15 04:50:55;;;;;;;19.60;15.65;;;;;;;18.12;82.18;100545.88;1646799;85;25843;-78
2021/08/15 04:53:22;;;;;;;17.50;14.23;;;;;;;18.17;82.22;100547.89;1678511;85;28113;-78
2021/08/15 04:55:49;;;;;;;19.23;15.08;;;;;;;18.21;82.26;100538.21;1642436;85;26608;-79
2021/08/15 04:58:16;;;;;;;26.05;16.12;;;;;;;18.26;82.15;100535.06;1633981;84;26601;-79
2021/08/15 05:00:43;;;;;;;18.73;15.50;;;;;;;18.32;82.14;100536.02;1624384;85;25851;-78
2021/08/15 05:03:11;;;;;;;20.48;15.58;;;;;;;18.36;82.04;100531.23;1680169;85;25789;-78
2021/08/15 05:05:39;;;;;;;22.98;15.32;;;;;;;18.42;82.06;100530.28;1652775;84;27479;-79
2021/08/15 05:08:07;;;;;;;20.15;15.45;;;;;;;18.48;82.03;100529.06;1643735;85;25920;-78
2021/08/15 05:10:34;;;;;;;20.32;15.83;;;;;;;18.52;82.02;100525.61;1600929;86;26504;-78
2021/08/15 05:13:01;;;;;;;21.52;15.50;;;;;;;18.58;81.98;100531.98;1678160;85;26567;-78
2021/08/15 05:15:28;;;;;;;23.50;15.53;;;;;;;18.62;81.83;100526.36;1655485;84;26709;-79
2021/08/15 05:17:55;;;;;;;18.80;15.78;;;;;;;18.66;81.72;100532.42;1642327;84;28243;-78
2021/08/15 05:20:22;;;;;;;20.08;16.05;;;;;;;18.70;81.73;100528.16;1635174;84;25920;-78
2021/08/15 05:22:49;;;;;;;18.23;15.50;;;;;;;18.78;81.84;100533.72;1662916;84;25866;-77
2021/08/15 05:25:16;;;;;;;18.25;14.45;;;;;;;18.86;81.98;100535.52;1643489;84;25867;-78
2021/08/15 05:27:43;;;;;;;16.67;13.58;;;;;;;18.95;82.06;100535.43;1639626;84;25788;-78
2021/08/15 05:30:10;;;;;;;18.77;15.68;;;;;;;19.08;81.93;100535.66;1635520;84;27604;-78
2021/08/15 05:32:37;;;;;;;18.90;14.93;;;;;;;19.19;81.94;100543.77;1674626;84;26691;-78
2021/08/15 05:35:04;;;;;;;16.82;15.08;;;;;;;19.34;82.12;100547.80;1635460;84;26553;-78
2021/08/15 05:37:31;;;;;;;18.00;13.72;;;;;;;19.45;82.46;100562.72;1664752;84;25984;-78
2021/08/15 05:39:58;;;;;;;17.87;13.95;;;;;;;19.50;82.00;100545.69;1654890;84;25819;-79
2021/08/15 05:42:26;;;;;;;19.48;14.38;;;;;;;19.54;82.21;100560.42;1680180;84;27490;-78
2021/08/15 05:44:53;;;;;;;18.60;13.65;;;;;;;19.57;81.79;100555.31;1644176;84;25913;-79
2021/08/15 05:47:20;;;;;;;17.82;13.78;;;;;;;19.63;81.56;100554.88;1657256;84;25873;-78
2021/08/15 05:49:47;;;;;;;17.27;14.00;;;;;;;19.64;81.17;100555.15;1657903;84;25907;-81
2021/08/15 05:52:14;;;;;;;16.32;13.75;;;;;;;19.64;81.26;100553.27;1658580;84;25793;-77
2021/08/15 05:54:41;;;;;;;17.77;13.75;;;;;;;19.67;81.19;100554.14;1650713;84;27435;-79
2021/08/15 05:57:08;;;;;;;18.20;13.43;;;;;;;19.69;81.33;100561.51;1638221;84;25840;-77
2021/08/15 05:59:35;;;;;;;15.32;12.70;;;;;;;19.67;80.79;100565.53;1638330;84;25888;-78
2021/08/15 06:02:03;;;;;;;16.67;13.22;;;;;;;19.67;80.41;100568.25;1679604;84;26174;-78
2021/08/15 06:04:30;;;;;;;17.48;13.62;;;;;;;19.70;80.86;100571.29;1646578;84;25846;-78
2021/08/15 06:06:57;;;;;;;16.95;13.13;;;;;;;19.77;80.81;100574.67;1650473;84;28184;-78
2021/08/15 06:09:25;;;;;;;15.08;12.43;;;;;;;19.84;80.99;100575.87;1633597;84;26495;-78
2021/08/15 06:11:52;;;;;;;20.00;14.43;;;;;;;19.92;80.96;100572.20;1680278;84;25842;-78
2021/08/15 06:14:19;;;;;;;18.15;13.28;;;;;;;19.99;80.12;100561.95;1661604;84;26266;-78
2021/08/15 06:16:46;;;;;;;24.12;16.73;;;;;;;20.08;79.80;100567.00;1649571;85;25948;-77
2021/08/15 06:19:14;;;;;;;17.60;13.75;;;;;;;20.18;79.17;100564.41;1627442;85;28353;-77
2021/08/15 06:21:41;;;;;;;13.88;12.37;;;;;;;20.30;78.72;100565.16;1673392;85;26489;-78
2021/08/15 06:24:08;;;;;;;15.40;12.10;;;;;;;20.43;77.94;100567.52;1628244;85;25911;-77
2021/08/15 06:26:35;;;;;;;16.23;12.80;;;;;;;20.57;78.86;100562.80;1641177;85;26189;-78
2021/08/15 06:29:02;;;;;;;18.20;13.60;;;;;;;20.70;78.33;100562.42;1623928;85;26052;-77
2021/08/15 06:31:29;;;;;;;17.40;13.08;;;;;;;20.81;77.40;100557.12;1675389;85;27563;-78
2021/08/15 06:33:56;;;;;;;16.02;12.70;;;;;;;20.93;76.59;100565.44;1641198;85;26049;-79
2021/08/15 06:36:23;;;;;;;14.25;11.97;;;;;;;21.09;77.14;100568.63;1648932;85;25807;-78
2021/08/15 06:38:50;;;;;;;20.08;14.47;;;;;;;21.26;76.52;100573.44;1626098;85;26090;-78
2021/08/15 06:41:17;;;;;;;20.12;13.55;;;;;;;21.40;75.88;100569.23;1675653;85;25730;-78
2021/08/15 06:43:44;;;;;;;17.73;12.85;;;;;;;21.56;75.75;100571.53;1638755;85;28304;-77
2021/08/15 06:46:12;;;;;;;14.68;11.95;;;;;;;21.64;75.83;100575.70;1654399;85;25814;-78
2021/08/15 06:48:41;;;;;;;14.50;12.13;;;;;;;21.62;75.05;100571.85;1624281;85;25835;-78
2021/08/15 06:51:08;;;;;;;14.60;12.73;;;;;;;21.68;74.81;100570.02;1673145;85;26280;-78
2021/08/15 06:53:38;;;;;;;16.23;11.45;;;;;;;21.76;75.10;100567.62;1641564;85;26132;-79
2021/08/15 06:56:10;;;;;;;;;;;;;;;21.84;74.66;100571.80;1649126;85;28241;-77
2021/08/15 06:58:36;;;;;;;;;;;;;;;21.96;74.81;100571.89;1678317;84;25796;-79
2021/08/15 07:01:04;;;;;;;12.28;10.08;;;;;;;22.07;74.28;100570.05;1649359;85;25886;-78
2021/08/15 07:03:31;;;;;;;14.80;10.60;;;;;;;22.17;74.76;100571.50;1646910;85;26294;-78
2021/08/15 07:05:58;;;;;;;11.08;9.73;;;;;;;22.28;73.44;100571.02;1623278;85;26519;-77
2021/08/15 07:08:26;;;;;;;14.43;10.58;;;;;;;22.35;73.04;100564.22;1649602;85;27507;-79
2021/08/15 07:10:53;;;;;;;14.70;11.05;;;;;;;22.44;72.26;100562.64;1642439;85;25832;-79
2021/08/15 07:13:22;;;;;;;11.75;9.60;;;;;;;22.54;72.08;100563.25;1626935;85;25856;-78
2021/08/15 07:15:53;;;;;;;13.53;9.68;;;;;;;22.63;72.16;100560.30;1646513;85;26536;-80
2021/08/15 07:18:21;;;;;;;12.18;10.43;;;;;;;22.71;71.09;100559.81;1678507;85;25919;-79
2021/08/15 07:20:49;;;;;;;12.28;9.58;;;;;;;22.82;70.68;100562.29;1628266;85;28340;-80
2021/08/15 07:23:16;;;;;;;15.45;9.40;;;;;;;22.90;70.38;100559.59;1647678;85;26415;-79
2021/08/15 07:25:43;;;;;;;12.90;9.20;;;;;;;22.96;69.10;100563.45;1674209;85;25818;-79
2021/08/15 07:28:10;;;;;;;12.07;8.93;;;;;;;23.05;69.77;100566.48;1630032;85;25969;-79
2021/08/15 07:30:37;;;;;;;12.82;8.63;;;;;;;23.19;69.53;100563.48;1630002;85;25867;-79
2021/08/15 07:33:06;;;;;;;12.40;9.13;;;;;;;23.28;68.47;100565.14;1647974;85;27267;-79
2021/08/15 07:35:36;;;;;;;11.73;7.50;;;;;;;23.36;68.00;100560.00;1642644;85;27126;-80
2021/08/15 07:38:06;;;;;;;9.33;8.33;;;;;;;23.46;68.90;100560.00;1626465;85;26062;-78
2021/08/15 07:40:34;;;;;;;11.50;8.20;;;;;;;23.52;67.03;100554.00;1629569;85;26413;-79
2021/08/15 07:43:01;;;;;;;9.53;7.33;;;;;;;23.60;66.26;100557.55;1643864;85;26015;-79
2021/08/15 07:45:31;;;;;;;10.40;7.67;;;;;;;23.67;66.83;100564.38;1664372;85;27982;-80
2021/08/15 07:48:00;;;;;;;10.43;8.08;;;;;;;23.71;65.85;100561.39;1634353;85;25960;-79
2021/08/15 07:50:33;;;;;;;9.83;8.28;;;;;;;23.72;65.92;100551.25;1624536;85;25823;-79
2021/08/15 07:52:56;;;;;;;11.93;8.38;;;;;;;23.76;65.58;100553.70;1666287;85;26275;-78
2021/08/15 07:55:23;;;;;;;9.33;7.72;;;;;;;23.86;65.58;100548.25;1664561;85;25817;-79
2021/08/15 07:57:51;;;;;;;9.33;6.97;;;;;;;23.96;65.14;100544.67;1629525;86;28123;-78
2021/08/15 08:00:18;;;;;;;11.53;7.62;;;;;;;24.08;65.61;100554.83;1654800;85;26012;-79
2021/08/15 08:02:45;;;;;;;14.83;7.55;;;;;;;24.18;64.17;100546.05;1633307;85;25803;-79
2021/08/15 08:05:12;;;;;;;9.80;8.15;;;;;;;24.30;63.96;100545.18;1665453;84;25825;-78
2021/08/15 08:07:39;;;;;;;11.12;7.05;;;;;;;24.43;63.45;100550.61;1634126;85;25880;-79
2021/08/15 08:10:07;;;;;;;10.25;7.58;;;;;;;24.50;62.21;100550.60;1656566;85;27704;-80
2021/08/15 08:12:34;;;;;;;9.05;6.80;;;;;;;24.58;62.91;100548.36;1670177;85;26633;-79
2021/08/15 08:15:01;;;;;;;9.10;7.62;;;;;;;24.68;63.43;100544.23;1666932;85;25982;-79
2021/08/15 08:17:28;;;;;;;15.45;7.85;;;;;;;24.79;62.17;100545.83;1634851;85;26423;-79
2021/08/15 08:19:55;;;;;;;8.40;6.85;;;;;;;24.86;61.57;100538.96;1628818;85;26072;-79
2021/08/15 08:22:22;;;;;;;8.95;7.15;;;;;;;24.94;61.31;100540.27;1645172;84;28333;-79
2021/08/15 08:24:49;;;;;;;9.45;7.33;;;;;;;25.00;60.32;100536.43;1672944;84;25890;-79
2021/08/15 08:27:18;;;;;;;9.75;6.85;;;;;;;25.06;59.85;100542.94;1641297;84;25948;-79
2021/08/15 08:29:45;;;;;;;10.05;6.53;;;;;;;25.16;59.33;100543.44;1646877;85;26402;-79
2021/08/15 08:32:12;;;;;;;8.58;6.17;;;;;;;25.24;59.61;100546.95;1664038;84;25762;-79
2021/08/15 08:34:39;;;;;;;8.58;5.53;;;;;;;25.28;59.50;100541.98;1693572;84;28276;-78
2021/08/15 08:37:06;;;;;;;6.78;5.58;;;;;;;25.40;59.96;100538.89;1664851;84;26320;-79
2021/08/15 08:39:33;;;;;;;5.95;5.37;;;;;;;25.50;59.15;100536.64;1660678;84;25974;-79
2021/08/15 08:42:03;;;;;;;9.93;7.70;;;;;;;25.57;58.20;100535.77;1649260;85;25823;-79
2021/08/15 08:44:33;;;;;;;9.35;5.95;;;;;;;25.69;58.16;100534.83;1677230;84;25959;-79
2021/08/15 08:47:03;;;;;;;10.53;5.85;;;;;;;25.80;57.17;100532.27;1629108;84;27594;-79
2021/08/15 08:49:30;;;;;;;8.10;5.90;;;;;;;25.89;57.81;100531.91;1664866;84;25927;-79
2021/08/15 08:51:58;;;;;;;8.33;6.37;;;;;;;25.97;57.69;100531.28;1660328;85;25796;-79
2021/08/15 08:54:27;;;;;;;7.75;6.22;;;;;;;26.05;57.31;100533.97;1683298;84;25797;-80
2021/08/15 08:56:55;;;;;;;10.90;6.25;;;;;;;26.11;56.99;100533.62;1621742;84;25892;-80
2021/08/15 08:59:22;;;;;;;10.40;5.85;;;;;;;26.19;56.62;100528.89;1662867;84;27202;-79
2021/08/15 09:01:49;;;;;;;6.35;5.50;;;;;;;26.25;57.28;100518.66;1683117;84;25363;-78
2021/08/15 09:04:16;;;;;;;9.48;5.83;;;;;;;26.32;55.61;100530.95;1689854;84;25828;-80
2021/08/15 09:06:43;;;;;;;8.60;5.92;;;;;;;26.36;55.53;100521.01;1630399;85;25896;-80
2021/08/15 09:09:17;;;;;;;8.80;5.85;;;;;;;26.42;56.01;100519.00;1632964;85;25864;-79
2021/08/15 09:11:50;;;;;;;9.43;6.05;;;;;;;26.45;54.67;100519.23;1671474;85;27580;-80
2021/08/15 09:14:24;;;;;;;8.00;5.65;;;;;;;26.51;55.12;100516.70;1665962;85;25886;-79
2021/08/15 09:16:58;;;;;;;9.50;5.25;;;;;;;26.59;54.96;100513.84;1625581;84;25857;-80
2021/08/15 09:19:36;;;;;;;9.65;5.55;;;;;;;26.69;55.47;100515.08;1637762;84;26582;-80
2021/08/15 09:22:26;;;;;;;6.90;4.90;;;;;;;26.79;54.39;100510.05;1643819;84;25879;-80
2021/08/15 09:25:12;;;;;;;8.25;5.62;;;;;;;26.87;52.72;100507.45;1673096;84;27647;-79
2021/08/15 09:27:54;;;;;;;6.78;4.67;;;;;;;26.99;53.74;100512.52;1630584;84;25868;-81
2021/08/15 09:30:31;;;;;;;8.60;5.95;;;;;;;27.05;52.17;100512.70;1642496;84;25731;-82
2021/08/15 09:33:08;;;;;;;10.43;5.53;;;;;;;27.04;51.01;100516.55;1641413;86;25918;-82
2021/08/15 09:35:40;;;;;;;5.33;4.47;;;;;;;27.04;51.47;100514.63;1671805;84;25811;-80
2021/08/15 09:38:17;;;;;;;8.38;4.60;;;;;;;27.09;49.97;100509.06;1679854;83;27487;-82
2021/08/15 09:40:49;;;;;;;6.58;5.08;;;;;;;27.14;49.55;100509.52;1685137;83;25952;-81
2021/08/15 09:43:23;;;;;;;6.45;5.00;;;;;;;27.17;50.94;100513.89;1665082;84;25803;-81
2021/08/15 09:45:59;;;;;;;5.90;5.30;;;;;;;27.25;50.92;100509.08;1682512;84;25897;-81
2021/08/15 09:48:34;;;;;;;5.65;4.62;;;;;;;27.27;49.85;100511.52;1644707;83;25862;-82
2021/08/15 09:51:19;;;;;;;6.40;4.83;;;;;;;27.21;49.53;100503.92;1632402;84;28257;-80
2021/08/15 09:53:58;;;;;;;8.33;5.15;;;;;;;27.11;50.09;100510.13;1653435;84;25896;-80
2021/08/15 09:56:36;;;;;;;6.58;4.35;;;;;;;27.00;50.43;100508.09;1666434;85;26004;-81
2021/08/15 09:59:19;;;;;;;9.13;6.20;;;;;;;27.00;49.68;100505.89;1656893;84;25856;-81
2021/08/15 10:01:53;;;;;;;8.70;4.60;;;;;;;27.03;49.12;100497.86;1631185;85;26595;-81
2021/08/15 10:04:23;;;;;;;8.70;5.10;;;;;;;27.09;49.08;100497.24;1640587;85;27632;-79
2021/08/15 10:06:53;;;;;;;;;;;;;;;27.12;49.06;100493.33;1684545;84;25845;-79
2021/08/15 10:09:21;;;;;;;7.03;4.53;;;;;;;27.18;49.64;100493.50;1637820;84;25849;-79
2021/08/15 10:11:50;;;;;;;7.05;4.42;;;;;;;27.19;48.78;100497.08;1672687;83;54371;-80
2021/08/15 10:14:17;;;;;;;5.50;3.47;;;;;;;27.23;48.06;100489.31;1658097;84;25401;-80
2021/08/15 10:17:01;;;;;;;5.78;4.05;;;;;;;27.17;46.77;100488.31;1662382;84;28284;-79
2021/08/15 10:19:40;;;;;;;8.08;4.40;;;;;;;27.10;48.24;100489.23;1650235;85;25847;-81
2021/08/15 10:22:08;;;;;;;5.47;4.00;;;;;;;27.13;48.37;100488.10;1654370;84;25900;-80
2021/08/15 10:24:51;;;;;;;6.47;4.20;;;;;;;27.20;48.22;100491.85;1657559;84;26194;-80
2021/08/15 10:27:43;;;;;;;6.15;4.35;;;;;;;27.16;47.70;100485.32;1666692;84;25897;-80
2021/08/15 10:30:33;;;;;;;6.33;4.03;;;;;;;27.16;48.10;100488.07;1673211;83;27393;-80
2021/08/15 10:33:09;;;;;;;9.80;3.85;;;;;;;27.09;48.71;100474.70;1673592;84;25831;-79
2021/08/15 10:35:38;;;;;;;4.33;3.87;;;;;;;27.11;48.25;100475.77;1666398;85;25952;-79
2021/08/15 10:38:18;;;;;;;6.45;4.00;;;;;;;27.18;49.33;100472.09;1663875;85;25758;-80
2021/08/15 10:40:48;;;;;;;5.10;4.58;;;;;;;27.28;47.81;100469.16;1635724;85;25775;-81
2021/08/15 10:43:27;;;;;;;5.90;4.70;;;;;;;27.33;48.84;100461.63;1630096;84;26957;-80
2021/08/15 10:46:22;;;;;;;5.92;4.10;;;;;;;27.38;49.32;100464.34;1655327;84;25543;-81
2021/08/15 10:49:02;;;;;;;8.50;4.20;;;;;;;27.43;48.97;100460.14;1668371;84;25788;-80
2021/08/15 10:51:53;;;;;;;9.53;5.60;;;;;;;27.47;49.65;100453.46;1633702;85;25881;-81
2021/08/15 10:54:33;;;;;;;8.03;4.85;;;;;;;27.51;49.25;100458.61;1648969;85;25867;-81
2021/08/15 10:57:04;;;;;;;7.92;4.20;;;;;;;27.59;49.44;100446.91;1604279;84;27478;-81
2021/08/15 10:59:41;;;;;;;5.62;4.33;;;;;;;27.65;49.27;100454.53;1668824;84;26193;-81
2021/08/15 11:02:17;;;;;;;9.43;5.00;;;;;;;27.70;47.85;100451.11;1656111;85;25331;-81
2021/08/15 11:04:57;;;;;;;4.58;4.15;;;;;;;27.74;48.29;100451.30;1624095;85;26107;-82
2021/08/15 11:07:42;;;;;;;6.72;3.90;;;;;;;27.82;48.94;100445.92;1668334;84;25778;-81
2021/08/15 11:10:12;;;;;;;7.40;4.20;;;;;;;27.85;48.07;100441.19;1654750;84;27691;-81
2021/08/15 11:13:20;;;;;;;5.13;4.47;;;;;;;27.84;48.62;100449.77;1660783;84;25992;-80
2021/08/15 11:15:47;;;;;;;6.28;4.12;;;;;;;27.84;48.54;100451.97;1655467;83;25839;-81
2021/08/15 11:18:17;;;;;;;4.62;3.98;;;;;;;27.77;47.43;100449.34;1661519;85;26639;-80
2021/08/15 11:20:51;;;;;;;4.07;3.63;;;;;;;27.68;47.66;100454.73;1637714;84;25687;-80
2021/08/15 11:23:23;;;;;;;5.45;3.85;;;;;;;27.57;46.99;100454.65;1662347;84;27538;-80